createdAt,value
2019-05-17T00:00:47.456Z,13.43
2019-05-17T00:03:18.671Z,14.20
2019-05-17T00:05:48.048Z,17.55
2019-05-17T00:08:30.837Z,17.87
2019-05-17T00:10:48.337Z,16.02
2019-05-17T00:13:17.609Z,18.70
2019-05-17T00:15:47.447Z,13.80
2019-05-17T00:18:17.276Z,18.80
2019-05-17T00:20:47.657Z,18.98
2019-05-17T00:23:17.489Z,20.10
2019-05-17T00:25:48.425Z,17.95
2019-05-17T00:28:17.697Z,15.08
2019-05-17T00:30:47.080Z,16.42
2019-05-17T00:33:16.983Z,19.02
2019-05-17T00:35:46.996Z,21.05
2019-05-17T00:38:16.990Z,17.55
2019-05-17T00:40:47.049Z,16.45
2019-05-17T00:43:17.010Z,19.67
2019-05-17T00:45:46.924Z,19.37
2019-05-17T00:48:17.387Z,16.65
2019-05-17T00:50:53.340Z,17.10
2019-05-17T00:53:17.700Z,17.95
2019-05-17T00:55:48.518Z,14.25
2019-05-17T00:58:17.790Z,16.93
2019-05-17T01:00:47.944Z,16.32
2019-05-17T01:03:17.404Z,16.62
2019-05-17T01:05:47.361Z,16.75
2019-05-17T01:08:17.433Z,17.67
2019-05-17T01:10:47.375Z,18.32
2019-05-17T01:13:17.477Z,22.73
2019-05-17T01:15:47.541Z,18.62
2019-05-17T01:18:16.868Z,17.12
2019-05-17T01:20:47.424Z,17.52
2019-05-17T01:23:17.987Z,16.70
2019-05-17T01:25:48.156Z,19.67
2019-05-17T01:28:17.579Z,18.90
2019-05-17T01:30:46.851Z,18.60
2019-05-17T01:33:17.343Z,16.75
2019-05-17T01:35:46.779Z,20.45
2019-05-17T01:38:17.770Z,22.22
2019-05-17T01:40:47.272Z,19.42
2019-05-17T01:43:16.767Z,21.93
2019-05-17T01:45:48.001Z,23.57
2019-05-17T01:48:17.100Z,20.30
2019-05-17T01:50:46.582Z,21.30
2019-05-17T01:53:16.622Z,22.60
2019-05-17T01:55:46.667Z,24.90
2019-05-17T01:58:17.271Z,21.55
2019-05-17T02:00:46.691Z,24.92
2019-05-17T02:03:17.383Z,23.73
2019-05-17T02:05:47.352Z,26.77
2019-05-17T02:08:17.159Z,24.65
2019-05-17T02:10:47.673Z,23.92
2019-05-17T02:13:16.995Z,28.57
2019-05-17T02:15:46.973Z,25.70
2019-05-17T02:18:17.357Z,29.67
2019-05-17T02:20:46.806Z,30.02
2019-05-17T02:23:17.429Z,29.95
2019-05-17T02:25:47.933Z,29.10
2019-05-17T02:28:17.215Z,32.30
2019-05-17T02:30:46.601Z,32.00
2019-05-17T02:33:15.871Z,34.18
2019-05-17T02:35:45.259Z,34.73
2019-05-17T02:38:14.548Z,38.17
2019-05-17T02:40:43.848Z,33.80
2019-05-17T02:43:13.445Z,34.38
2019-05-17T02:45:43.581Z,35.65
2019-05-17T02:48:13.558Z,35.38
2019-05-17T02:50:47.780Z,33.92
2019-05-17T02:53:15.323Z,34.35
2019-05-17T02:55:44.615Z,38.48
2019-05-17T02:58:13.939Z,39.00
2019-05-17T03:00:44.789Z,38.92
2019-05-17T03:03:14.087Z,38.13
2019-05-17T03:05:43.693Z,35.85
2019-05-17T03:08:12.987Z,36.40
2019-05-17T03:10:43.226Z,38.80
2019-05-17T03:13:15.355Z,37.93
2019-05-17T03:15:43.737Z,42.13
2019-05-17T03:18:13.600Z,38.70
2019-05-17T03:20:43.420Z,43.38
2019-05-17T03:23:12.915Z,40.28
2019-05-17T03:25:44.081Z,40.98
2019-05-17T03:28:13.577Z,42.05
2019-05-17T03:30:46.786Z,42.10
2019-05-17T03:33:16.431Z,42.20
2019-05-17T03:35:47.858Z,42.00
2019-05-17T03:38:17.151Z,42.27
2019-05-17T03:41:07.473Z,37.13
2019-05-17T03:43:17.494Z,41.33
2019-05-17T03:45:46.925Z,40.90
2019-05-17T03:48:16.324Z,38.98
2019-05-17T03:50:45.604Z,40.50
2019-05-17T03:53:14.918Z,42.80
2019-05-17T03:55:44.192Z,41.58
2019-05-17T03:58:13.557Z,43.02
2019-05-17T04:00:43.047Z,42.17
2019-05-17T04:03:13.565Z,41.20
2019-05-17T04:05:43.296Z,42.78
2019-05-17T04:08:13.943Z,43.30
2019-05-17T04:10:43.606Z,43.38
2019-05-17T04:13:13.205Z,41.77
2019-05-17T04:15:43.354Z,43.35
2019-05-17T04:18:13.342Z,41.53
2019-05-17T04:20:43.778Z,43.15
2019-05-17T04:23:13.211Z,45.98
2019-05-17T04:25:43.506Z,43.00
2019-05-17T04:28:13.819Z,43.87
2019-05-17T04:30:43.590Z,44.13
2019-05-17T04:33:13.090Z,45.17
2019-05-17T04:35:43.244Z,45.20
2019-05-17T04:38:12.997Z,46.77
2019-05-17T04:40:43.144Z,43.02
2019-05-17T04:43:13.550Z,43.92
2019-05-17T04:45:43.297Z,46.28
2019-05-17T04:48:13.373Z,43.83
2019-05-17T04:50:43.096Z,44.33
2019-05-17T04:53:13.389Z,43.25
2019-05-17T04:55:43.345Z,46.98
2019-05-17T04:58:13.680Z,50.48
2019-05-17T05:00:43.272Z,51.83
2019-05-17T05:03:12.899Z,52.10
2019-05-17T05:05:42.930Z,47.03
2019-05-17T05:08:12.982Z,47.90
2019-05-17T05:10:44.189Z,49.55
2019-05-17T05:13:13.578Z,54.58
2019-05-17T05:15:44.593Z,45.33
2019-05-17T05:18:14.258Z,47.62
2019-05-17T05:20:44.069Z,46.83
2019-05-17T05:23:13.654Z,49.65
2019-05-17T05:25:43.456Z,47.05
2019-05-17T05:28:12.938Z,44.25
2019-05-17T05:30:43.728Z,49.20
2019-05-17T05:33:13.258Z,46.30
2019-05-17T05:35:42.903Z,42.10
2019-05-17T05:38:13.275Z,44.67
2019-05-17T05:40:43.829Z,46.58
2019-05-17T05:43:13.777Z,44.25
2019-05-17T05:45:43.077Z,45.65
2019-05-17T05:48:13.272Z,42.53
2019-05-17T05:50:43.952Z,45.90
2019-05-17T05:53:13.422Z,42.45
2019-05-17T05:55:43.319Z,43.83
2019-05-17T05:58:12.986Z,45.23
2019-05-17T06:00:42.942Z,42.75
2019-05-17T06:03:12.542Z,42.38
2019-05-17T06:05:42.562Z,42.43
2019-05-17T06:08:13.195Z,40.43
2019-05-17T06:10:43.026Z,44.48
2019-05-17T06:13:13.461Z,42.75
2019-05-17T06:15:43.198Z,45.15
2019-05-17T06:18:12.765Z,42.27
2019-05-17T06:20:42.224Z,41.10
2019-05-17T06:23:12.179Z,41.58
2019-05-17T06:25:43.449Z,43.68
2019-05-17T06:28:12.848Z,43.08
2019-05-17T06:30:43.114Z,43.33
2019-05-17T06:33:26.653Z,47.25
2019-05-17T06:35:43.614Z,40.67
2019-05-17T06:38:13.189Z,45.15
2019-05-17T06:40:42.461Z,44.90
2019-05-17T06:43:13.145Z,44.85
2019-05-17T06:45:42.654Z,42.95
2019-05-17T06:48:12.091Z,42.35
2019-05-17T06:50:42.824Z,51.60
2019-05-17T06:53:12.767Z,46.88
2019-05-17T06:55:42.611Z,47.38
2019-05-17T06:58:12.409Z,40.33
2019-05-17T07:00:41.858Z,52.00
2019-05-17T07:03:12.694Z,49.75
2019-05-17T07:05:46.347Z,47.95
2019-05-17T07:08:15.678Z,46.33
2019-05-17T07:10:44.966Z,41.15
2019-05-17T07:13:14.375Z,42.60
2019-05-17T07:15:47.814Z,44.90
2019-05-17T07:18:14.663Z,42.15
2019-05-17T07:20:43.953Z,50.67
2019-05-17T07:23:13.248Z,45.78
2019-05-17T07:25:42.557Z,46.28
2019-05-17T07:28:11.867Z,49.05
2019-05-17T07:30:41.193Z,43.75
2019-05-17T07:33:10.544Z,44.60
2019-05-17T07:35:40.069Z,42.85
2019-05-17T07:38:10.614Z,42.17
2019-05-17T07:40:40.250Z,41.42
2019-05-17T07:43:14.372Z,41.02
2019-05-17T07:45:41.129Z,39.42
2019-05-17T07:48:10.518Z,45.60
2019-05-17T07:50:40.116Z,46.42
2019-05-17T07:53:10.383Z,45.80
2019-05-17T07:55:40.187Z,49.05
2019-05-17T07:58:10.220Z,43.35
2019-05-17T08:00:40.318Z,42.67
2019-05-17T08:03:12.995Z,39.80
2019-05-17T08:05:40.827Z,42.90
2019-05-17T08:08:10.427Z,45.65
2019-05-17T08:10:41.289Z,40.83
2019-05-17T08:13:25.156Z,38.48
2019-05-17T08:15:41.698Z,38.67
2019-05-17T08:18:11.224Z,37.53
2019-05-17T08:20:40.675Z,43.35
2019-05-17T08:23:11.531Z,37.73
2019-05-17T08:25:52.143Z,32.85
2019-05-17T08:28:11.941Z,28.87
2019-05-17T08:30:41.475Z,31.70
2019-05-17T08:33:11.788Z,29.20
2019-05-17T08:35:41.116Z,32.93
2019-05-17T08:38:10.750Z,31.97
2019-05-17T08:40:40.727Z,29.60
2019-05-17T08:43:11.238Z,28.98
2019-05-17T08:45:41.049Z,29.18
2019-05-17T08:48:10.409Z,27.55
2019-05-17T08:50:40.538Z,29.18
2019-05-17T08:53:10.848Z,26.95
2019-05-17T08:55:41.246Z,30.90
2019-05-17T08:58:10.764Z,30.12
2019-05-17T09:00:41.159Z,29.27
2019-05-17T09:03:11.528Z,32.17
2019-05-17T09:05:41.770Z,30.27
2019-05-17T09:08:12.415Z,31.60
2019-05-17T09:10:41.841Z,30.92
2019-05-17T09:13:14.543Z,34.65
2019-05-17T09:15:42.946Z,30.80
2019-05-17T09:18:12.323Z,28.27
2019-05-17T09:20:41.613Z,26.77
2019-05-17T09:23:12.002Z,25.05
2019-05-17T09:25:41.307Z,24.35
2019-05-17T09:28:11.378Z,32.10
2019-05-17T09:30:40.855Z,25.05
2019-05-17T09:33:11.285Z,21.48
2019-05-17T09:35:41.200Z,20.68
2019-05-17T09:38:11.026Z,24.05
2019-05-17T09:40:40.545Z,22.17
2019-05-17T09:43:10.515Z,20.75
2019-05-17T09:45:40.736Z,21.42
2019-05-17T09:48:10.693Z,21.57
2019-05-17T09:50:40.280Z,21.87
2019-05-17T09:53:10.749Z,20.35
2019-05-17T09:55:40.533Z,21.07
2019-05-17T09:58:10.904Z,20.27
2019-05-17T10:00:40.235Z,20.20
2019-05-17T10:03:09.967Z,20.88
2019-05-17T10:05:40.569Z,22.75
2019-05-17T10:08:11.036Z,18.65
2019-05-17T10:10:40.559Z,19.57
2019-05-17T10:13:10.999Z,21.70
2019-05-17T10:15:41.007Z,20.15
2019-05-17T10:18:11.568Z,17.42
2019-05-17T10:20:40.876Z,17.90
2019-05-17T10:23:11.227Z,18.62
2019-05-17T10:25:40.585Z,18.65
2019-05-17T10:28:10.266Z,17.25
2019-05-17T10:30:40.119Z,18.00
2019-05-17T10:33:10.162Z,18.40
2019-05-17T10:35:40.573Z,17.85
2019-05-17T10:38:10.633Z,18.48
2019-05-17T10:40:41.145Z,16.65
2019-05-17T10:43:10.612Z,17.52
2019-05-17T10:45:40.401Z,15.40
2019-05-17T10:48:10.488Z,17.27
2019-05-17T10:50:40.724Z,19.70
2019-05-17T10:53:10.473Z,17.55
2019-05-17T10:55:40.250Z,16.97
2019-05-17T10:58:10.172Z,19.77
2019-05-17T11:00:41.474Z,19.32
2019-05-17T11:03:11.271Z,16.93
2019-05-17T11:05:40.602Z,21.45
2019-05-17T11:08:10.795Z,18.80
2019-05-17T11:10:40.315Z,23.77
2019-05-17T11:13:11.168Z,21.90
2019-05-17T11:15:41.541Z,18.45
2019-05-17T11:18:10.948Z,20.37
2019-05-17T11:20:40.254Z,20.37
2019-05-17T11:23:09.550Z,19.48
2019-05-17T11:25:44.922Z,18.55
2019-05-17T11:28:09.881Z,19.60
2019-05-17T11:30:39.195Z,19.48
2019-05-17T11:33:08.572Z,24.50
2019-05-17T11:35:37.889Z,21.50
2019-05-17T11:38:07.182Z,23.57
2019-05-17T11:40:36.628Z,21.42
2019-05-17T11:43:05.925Z,22.52
2019-05-17T11:45:35.248Z,20.25
2019-05-17T11:48:04.529Z,23.87
2019-05-17T11:50:33.826Z,25.02
2019-05-17T11:53:03.122Z,24.87
2019-05-17T11:55:32.441Z,19.60
2019-05-17T11:58:01.726Z,24.52
2019-05-17T12:00:31.541Z,28.05
2019-05-17T12:03:00.911Z,23.20
2019-05-17T12:05:30.409Z,20.88
2019-05-17T12:08:00.874Z,19.25
2019-05-17T12:10:31.475Z,20.68
2019-05-17T12:13:00.891Z,27.95
2019-05-17T12:15:44.492Z,22.95
2019-05-17T12:18:02.252Z,21.57
2019-05-17T12:20:31.576Z,25.15
2019-05-17T12:23:00.863Z,21.75
2019-05-17T12:25:30.170Z,22.17
2019-05-17T12:27:59.469Z,24.52
2019-05-17T12:30:28.875Z,24.00
2019-05-17T12:32:58.171Z,27.65
2019-05-17T12:35:27.489Z,23.20
2019-05-17T12:37:56.772Z,29.48
2019-05-17T12:40:27.649Z,23.98
2019-05-17T12:42:56.963Z,24.40
2019-05-17T12:45:26.284Z,22.37
2019-05-17T12:47:55.633Z,25.15
2019-05-17T12:50:24.935Z,24.15
2019-05-17T12:52:54.239Z,22.30
2019-05-17T12:55:23.559Z,22.95
2019-05-17T12:57:52.948Z,20.90
2019-05-17T13:00:22.792Z,23.77
2019-05-17T13:02:52.109Z,21.50
2019-05-17T13:05:22.156Z,22.20
2019-05-17T13:07:51.455Z,23.02
2019-05-17T13:10:20.838Z,25.20
2019-05-17T13:12:50.116Z,28.12
2019-05-17T13:15:19.504Z,26.05
2019-05-17T13:17:49.018Z,25.77
2019-05-17T13:20:18.515Z,26.40
2019-05-17T13:22:48.560Z,24.52
2019-05-17T13:25:18.014Z,25.52
2019-05-17T13:27:47.335Z,27.10
2019-05-17T13:30:17.086Z,29.35
2019-05-17T13:32:46.391Z,27.40
2019-05-17T13:35:16.913Z,31.15
2019-05-17T13:37:46.312Z,28.87
2019-05-17T13:40:15.888Z,33.65
2019-05-17T13:42:45.224Z,29.77
2019-05-17T13:45:14.879Z,27.37
2019-05-17T13:47:44.258Z,25.15
2019-05-17T13:50:14.869Z,27.32
2019-05-17T13:52:44.202Z,28.12
2019-05-17T13:55:14.814Z,28.70
2019-05-17T13:57:44.128Z,31.75
2019-05-17T14:00:13.759Z,30.48
2019-05-17T14:02:43.127Z,28.83
2019-05-17T14:05:12.574Z,31.97
2019-05-17T14:07:41.957Z,30.25
2019-05-17T14:10:26.119Z,34.08
2019-05-17T14:12:45.041Z,33.58
2019-05-17T14:15:14.499Z,35.30
2019-05-17T14:17:43.777Z,32.98
2019-05-17T14:20:13.167Z,34.00
2019-05-17T14:22:42.450Z,37.40
2019-05-17T14:25:13.359Z,33.63
2019-05-17T14:27:42.664Z,29.80
2019-05-17T14:30:12.295Z,27.77
2019-05-17T14:32:41.691Z,27.25
2019-05-17T14:35:11.296Z,23.80
2019-05-17T14:37:40.726Z,26.02
2019-05-17T14:40:10.117Z,25.62
2019-05-17T14:42:39.425Z,30.55
2019-05-17T14:45:08.950Z,29.52
2019-05-17T14:47:38.393Z,25.40
2019-05-17T14:50:07.866Z,26.15
2019-05-17T14:52:37.155Z,28.10
2019-05-17T14:55:07.907Z,36.55
2019-05-17T14:57:37.255Z,25.23
2019-05-17T15:00:07.645Z,26.97
2019-05-17T15:02:36.910Z,26.45
2019-05-17T15:05:06.881Z,26.95
2019-05-17T15:07:36.248Z,26.20
2019-05-17T15:10:07.445Z,30.45
2019-05-17T15:12:36.727Z,30.12
2019-05-17T15:15:07.687Z,27.32
2019-05-17T15:17:37.066Z,26.93
2019-05-17T15:20:06.849Z,26.85
2019-05-17T15:22:36.207Z,26.10
2019-05-17T15:25:05.858Z,28.62
2019-05-17T15:27:35.154Z,27.62
2019-05-17T15:30:06.343Z,29.55
2019-05-17T15:32:35.627Z,31.85
2019-05-17T15:35:06.684Z,27.02
2019-05-17T15:37:36.033Z,30.23
2019-05-17T15:40:06.814Z,30.55
2019-05-17T15:42:44.030Z,32.30
2019-05-17T15:45:07.454Z,31.37
2019-05-17T15:47:36.734Z,35.60
2019-05-17T15:50:07.172Z,34.90
2019-05-17T15:52:36.535Z,32.78
2019-05-17T15:55:08.783Z,36.85
2019-05-17T15:57:38.085Z,37.65
2019-05-17T16:00:07.889Z,35.28
2019-05-17T16:02:37.242Z,38.20
2019-05-17T16:05:06.805Z,36.23
2019-05-17T16:07:36.090Z,38.80
2019-05-17T16:10:08.855Z,42.65
2019-05-17T16:12:39.315Z,41.95
2019-05-17T16:15:09.029Z,46.73
2019-05-17T16:17:38.315Z,52.38
2019-05-17T16:20:16.546Z,56.40
2019-05-17T16:22:42.107Z,60.00
2019-05-17T16:25:11.630Z,59.45
2019-05-17T16:27:40.916Z,56.10
2019-05-17T16:30:10.594Z,57.08
2019-05-17T16:32:39.889Z,53.20
2019-05-17T16:35:11.023Z,49.67
2019-05-17T16:37:40.344Z,47.45
2019-05-17T16:40:10.115Z,46.00
2019-05-17T16:42:39.416Z,45.12
2019-05-17T16:45:09.166Z,42.55
2019-05-17T16:47:38.467Z,43.92
2019-05-17T16:50:08.354Z,43.48
2019-05-17T16:52:37.642Z,41.98
2019-05-17T16:55:08.204Z,40.38
2019-05-17T16:57:37.757Z,41.85
2019-05-17T17:00:27.930Z,43.08
2019-05-17T17:02:57.384Z,42.80
2019-05-17T17:05:26.688Z,46.88
2019-05-17T17:07:56.242Z,46.50
2019-05-17T17:10:25.621Z,47.55
2019-05-17T17:12:54.941Z,43.40
2019-05-17T17:15:24.305Z,44.85
2019-05-17T17:17:53.675Z,44.10
2019-05-17T17:20:23.445Z,46.08
2019-05-17T17:22:52.977Z,43.83
2019-05-17T17:25:23.557Z,46.85
2019-05-17T17:27:52.842Z,43.98
2019-05-17T17:30:22.221Z,44.70
2019-05-17T17:32:51.537Z,48.38
2019-05-17T17:35:20.834Z,45.15
2019-05-17T17:37:50.181Z,45.75
2019-05-17T17:40:21.132Z,48.25
2019-05-17T17:42:51.188Z,49.30
2019-05-17T17:45:23.405Z,47.20
2019-05-17T17:47:52.714Z,50.12
2019-05-17T17:50:22.152Z,50.12
2019-05-17T17:52:52.060Z,50.90
2019-05-17T17:55:21.551Z,49.75
2019-05-17T17:57:50.996Z,50.67
2019-05-17T18:00:21.122Z,52.50
2019-05-17T18:02:51.616Z,54.23
2019-05-17T18:05:20.987Z,51.92
2019-05-17T18:07:50.540Z,51.10
2019-05-17T18:10:33.551Z,52.23
2019-05-17T18:15:34.469Z,57.00
2019-05-17T18:18:03.875Z,55.33
2019-05-17T18:20:34.116Z,58.17
2019-05-17T18:23:03.420Z,55.23
2019-05-17T18:25:32.756Z,57.50
2019-05-17T18:28:02.083Z,56.20
2019-05-17T18:30:31.445Z,57.15
2019-05-17T18:33:00.793Z,56.10
2019-05-17T18:35:30.115Z,58.55
2019-05-17T18:37:59.423Z,55.00
2019-05-17T18:40:28.718Z,54.45
2019-05-17T18:42:58.039Z,50.52
2019-05-17T18:45:27.415Z,47.30
2019-05-17T18:47:58.637Z,47.90
2019-05-17T18:50:28.358Z,47.62
2019-05-17T18:52:57.846Z,45.70
2019-05-17T18:55:27.127Z,44.67
2019-05-17T18:57:56.532Z,43.52
2019-05-17T19:00:25.934Z,44.80
2019-05-17T19:02:55.263Z,43.73
2019-05-17T19:05:24.589Z,42.65
2019-05-17T19:07:55.024Z,47.08
2019-05-17T19:10:24.662Z,44.38
2019-05-17T19:12:53.976Z,43.40
2019-05-17T19:15:23.471Z,47.17
2019-05-17T19:17:52.810Z,50.00
2019-05-17T19:20:22.322Z,55.35
2019-05-17T19:22:51.765Z,59.27
2019-05-17T19:25:21.325Z,51.23
2019-05-17T19:27:50.691Z,55.33
2019-05-17T19:30:20.166Z,54.58
2019-05-17T19:32:49.456Z,53.45
2019-05-17T19:35:18.961Z,48.02
2019-05-17T19:37:48.261Z,48.38
2019-05-17T19:40:17.639Z,47.05
2019-05-17T19:42:46.944Z,50.23
2019-05-17T19:45:16.847Z,45.12
2019-05-17T19:47:46.189Z,44.53
2019-05-17T19:50:15.761Z,43.23
2019-05-17T19:52:45.086Z,43.23
2019-05-17T19:55:15.710Z,44.53
2019-05-17T19:57:45.037Z,43.13
2019-05-17T20:00:15.357Z,42.15
2019-05-17T20:02:45.100Z,37.75
2019-05-17T20:05:14.623Z,38.10
2019-05-17T20:07:43.968Z,42.35
2019-05-17T20:10:13.488Z,38.80
2019-05-17T20:12:42.865Z,42.78
2019-05-17T20:15:17.938Z,44.60
2019-05-17T20:17:43.763Z,40.95
2019-05-17T20:20:13.557Z,44.73
2019-05-17T20:22:42.878Z,42.93
2019-05-17T20:25:12.720Z,35.95
2019-05-17T20:27:42.026Z,41.80
2019-05-17T20:30:12.056Z,38.98
2019-05-17T20:32:41.356Z,40.48
2019-05-17T20:35:10.913Z,41.70
2019-05-17T20:37:40.286Z,43.13
2019-05-17T20:40:10.130Z,45.35
2019-05-17T20:42:39.728Z,44.33
2019-05-17T20:45:09.949Z,45.90
2019-05-17T20:47:39.335Z,45.75
2019-05-17T20:50:09.367Z,44.60
2019-05-17T20:52:38.730Z,45.12
2019-05-17T20:55:08.276Z,46.25
2019-05-17T20:57:37.606Z,45.33
2019-05-17T21:00:08.750Z,47.40
2019-05-17T21:02:38.163Z,47.83
2019-05-17T21:05:07.704Z,48.20
2019-05-17T21:07:37.058Z,46.40
2019-05-17T21:10:06.524Z,44.08
2019-05-17T21:12:35.835Z,49.38
2019-05-17T21:15:06.848Z,46.25
2019-05-17T21:17:36.132Z,48.17
2019-05-17T21:20:06.784Z,45.05
2019-05-17T21:22:36.241Z,45.85
2019-05-17T21:25:06.381Z,45.50
2019-05-17T21:27:35.752Z,47.65
2019-05-17T21:30:06.905Z,48.58
2019-05-17T21:32:36.252Z,46.33
2019-05-17T21:35:05.907Z,48.20
2019-05-17T21:37:35.800Z,47.95
2019-05-17T21:40:10.687Z,55.83
2019-05-17T21:42:39.967Z,54.10
2019-05-17T21:45:10.440Z,55.55
2019-05-17T21:47:39.733Z,50.73
2019-05-17T21:50:10.551Z,52.50
2019-05-17T21:52:39.834Z,56.90
2019-05-17T21:55:09.524Z,55.08
2019-05-17T21:57:38.807Z,53.17
2019-05-17T22:00:10.918Z,58.05
2019-05-17T22:02:41.814Z,56.83
2019-05-17T22:05:11.473Z,56.83
2019-05-17T22:07:41.853Z,56.60
2019-05-17T22:10:11.433Z,56.73
2019-05-17T22:12:40.819Z,63.05
2019-05-17T22:15:10.292Z,64.00
2019-05-17T22:17:39.595Z,60.85
2019-05-17T22:20:08.946Z,59.38
2019-05-17T22:22:38.257Z,58.68
2019-05-17T22:25:07.729Z,62.08
2019-05-17T22:27:37.064Z,64.45
2019-05-17T22:30:07.321Z,60.08
2019-05-17T22:32:37.599Z,59.77
2019-05-17T22:35:07.059Z,61.77
2019-05-17T22:37:36.358Z,62.23
2019-05-17T22:40:08.881Z,64.30
2019-05-17T22:42:39.513Z,70.92
2019-05-17T22:45:09.478Z,58.13
2019-05-17T22:47:38.773Z,66.22
2019-05-17T22:50:08.482Z,69.27
2019-05-17T22:52:37.809Z,64.10
2019-05-17T22:55:07.498Z,68.22
2019-05-17T22:57:36.821Z,76.45
2019-05-17T23:00:08.004Z,72.90
2019-05-17T23:05:07.414Z,76.33
2019-05-17T23:07:36.721Z,77.20
2019-05-17T23:10:07.651Z,67.80
2019-05-17T23:12:36.929Z,73.67
2019-05-17T23:15:08.026Z,67.90
2019-05-17T23:17:37.389Z,52.75
2019-05-17T23:20:07.253Z,53.02
2019-05-17T23:22:36.533Z,47.27
2019-05-17T23:25:08.730Z,55.65
2019-05-17T23:27:38.009Z,60.03
2019-05-17T23:30:07.586Z,55.60
2019-05-17T23:32:36.855Z,35.20
2019-05-17T23:35:07.320Z,43.87
2019-05-17T23:37:36.575Z,50.33
2019-05-17T23:40:06.759Z,46.55
2019-05-17T23:42:36.030Z,54.80
2019-05-17T23:45:08.453Z,63.25
2019-05-17T23:47:37.735Z,52.15
2019-05-17T23:50:08.879Z,51.30
2019-05-17T23:52:38.150Z,45.10
2019-05-17T23:55:08.489Z,60.73
2019-05-17T23:57:37.769Z,64.17
